Time;durP1;ratioP1;P1;durP2;ratioP2;P2;SDS_P1;SDS_P2;PMS_P1;PMS_P2;Temp;Humidity;BMP_temperature;BMP_pressure;BME280_temperature;BME280_humidity;BME280_pressure;Samples;Min_cycle;Max_cycle;Signal;HPM_P1;HPM_P2
2020/12/26 00:00:00;;;;;;;20.37;13.00;;;-0.40;99.90;;;;;;5070576;28;20668;-79
2020/12/26 00:02:28;;;;;;;21.50;13.30;;;-0.20;99.90;;;;;;5071714;28;20239;-80
2020/12/26 00:04:55;;;;;;;19.73;13.00;;;-0.10;99.90;;;;;;5071215;28;20205;-80
2020/12/26 00:07:21;;;;;;;19.37;13.10;;;-0.10;99.90;;;;;;5070272;28;20709;-80
2020/12/26 00:09:48;;;;;;;20.57;13.27;;;-0.20;99.90;;;;;;5069122;28;20764;-80
2020/12/26 00:12:14;;;;;;;18.87;13.03;;;-0.20;99.90;;;;;;5071743;28;20292;-80
2020/12/26 00:14:42;;;;;;;17.63;13.27;;;0.00;99.90;;;;;;5066359;28;20252;-80
2020/12/26 00:17:08;;;;;;;19.63;13.93;;;0.20;99.90;;;;;;5071696;28;20656;-80
2020/12/26 00:19:34;;;;;;;16.23;12.43;;;0.40;99.90;;;;;;5071325;28;20238;-79
2020/12/26 00:22:01;;;;;;;19.53;11.87;;;0.40;99.90;;;;;;5070895;28;20230;-80
2020/12/26 00:24:33;;;;;;;14.03;10.97;;;0.40;99.90;;;;;;5071804;28;20240;-80
2020/12/26 00:27:00;;;;;;;18.43;11.70;;;0.40;99.90;;;;;;5053523;28;20306;-80
2020/12/26 00:29:26;;;;;;;18.37;12.30;;;0.40;99.90;;;;;;5060242;28;20317;-80
2020/12/26 00:31:54;;;;;;;18.87;12.10;;;0.50;99.90;;;;;;5066821;28;20227;-80
2020/12/26 00:34:21;;;;;;;20.70;13.93;;;0.60;99.90;;;;;;5062538;28;20244;-80
2020/12/26 00:36:47;;;;;;;23.70;14.80;;;0.70;99.90;;;;;;5075195;28;20202;-80
2020/12/26 00:39:14;;;;;;;24.73;15.43;;;0.90;99.90;;;;;;5074535;28;20233;-80
2020/12/26 00:41:40;;;;;;;22.03;15.53;;;1.00;99.90;;;;;;5075032;28;20242;-80
2020/12/26 00:44:06;;;;;;;22.47;15.57;;;1.10;99.90;;;;;;5059842;28;20231;-79
2020/12/26 00:46:33;;;;;;;23.77;16.20;;;1.20;99.90;;;;;;5074808;28;20290;-80
2020/12/26 00:49:00;;;;;;;20.70;15.90;;;1.20;99.90;;;;;;5073852;28;20261;-79
2020/12/26 00:51:27;;;;;;;21.73;16.13;;;1.20;99.90;;;;;;5074666;28;20235;-80
2020/12/26 00:53:53;;;;;;;23.57;16.53;;;1.10;99.90;;;;;;5074835;28;20202;-80
2020/12/26 00:56:19;;;;;;;22.50;17.20;;;1.00;99.90;;;;;;5072004;28;20235;-79
2020/12/26 00:58:46;;;;;;;24.40;16.97;;;1.00;99.90;;;;;;5056421;28;20598;-80
2020/12/26 01:01:15;;;;;;;24.30;17.00;;;0.90;99.90;;;;;;5056816;28;20240;-80
2020/12/26 01:03:42;;;;;;;31.27;19.33;;;0.90;99.90;;;;;;5054057;28;20293;-80
2020/12/26 01:06:13;;;;;;;26.57;18.30;;;0.90;99.90;;;;;;5074284;28;20635;-80
2020/12/26 01:08:41;;;;;;;28.80;18.50;;;0.90;99.90;;;;;;5074879;28;20632;-81
2020/12/26 01:11:07;;;;;;;27.57;17.33;;;0.80;99.90;;;;;;5073622;28;20693;-80
2020/12/26 01:13:34;;;;;;;25.53;17.53;;;0.90;99.90;;;;;;5074496;28;20276;-80
2020/12/26 01:16:00;;;;;;;22.50;16.83;;;1.00;99.90;;;;;;5066044;28;20253;-81
2020/12/26 01:18:28;;;;;;;23.80;16.67;;;1.00;99.90;;;;;;5056386;28;21381;-80
2020/12/26 01:20:55;;;;;;;25.33;16.77;;;1.10;99.90;;;;;;5074267;28;20655;-80
2020/12/26 01:23:23;;;;;;;24.80;15.67;;;1.10;99.90;;;;;;5074035;28;20233;-80
2020/12/26 01:25:50;;;;;;;23.97;15.77;;;1.20;99.90;;;;;;5074073;28;20336;-80
2020/12/26 01:28:16;;;;;;;21.20;14.60;;;1.20;99.90;;;;;;5073524;28;20267;-80
2020/12/26 01:30:43;;;;;;;20.00;15.07;;;1.20;99.90;;;;;;5073571;28;20304;-80
2020/12/26 01:33:09;;;;;;;22.07;16.00;;;1.20;99.90;;;;;;5074216;28;20210;-80
2020/12/26 01:35:35;;;;;;;23.33;15.80;;;1.20;99.90;;;;;;5068309;28;20676;-80
2020/12/26 01:38:02;;;;;;;20.77;15.90;;;1.20;99.90;;;;;;5073884;28;20230;-80
2020/12/26 01:40:29;;;;;;;21.73;16.13;;;1.20;99.90;;;;;;5060432;28;20232;-80
2020/12/26 01:42:57;;;;;;;22.10;15.33;;;1.10;99.90;;;;;;5053724;28;20687;-80
2020/12/26 01:45:23;;;;;;;21.20;15.50;;;1.10;99.90;;;;;;5057731;28;20207;-80
2020/12/26 01:47:51;;;;;;;23.67;16.20;;;1.10;99.90;;;;;;5066129;28;20259;-80
2020/12/26 01:50:18;;;;;;;23.77;16.27;;;1.10;99.90;;;;;;5073265;28;20722;-80
2020/12/26 01:52:45;;;;;;;22.60;16.37;;;1.20;99.90;;;;;;5073767;28;20199;-80
2020/12/26 01:55:14;;;;;;;20.90;14.83;;;1.20;99.90;;;;;;5073726;28;20213;-80
2020/12/26 01:57:50;;;;;;;21.70;14.60;;;1.30;99.90;;;;;;5072350;28;20220;-80
2020/12/26 02:00:16;;;;;;;23.33;16.37;;;1.30;99.90;;;;;;5073242;28;20667;-80
2020/12/26 02:02:43;;;;;;;24.63;16.67;;;1.30;99.90;;;;;;5054652;28;20604;-80
2020/12/26 02:05:09;;;;;;;22.43;16.90;;;1.30;99.90;;;;;;5062720;28;20199;-80
2020/12/26 02:07:36;;;;;;;24.30;16.87;;;1.30;99.90;;;;;;5072948;28;20288;-80
2020/12/26 02:10:03;;;;;;;21.70;16.53;;;1.20;99.90;;;;;;5073405;28;20261;-81
2020/12/26 02:12:30;;;;;;;22.80;17.03;;;1.20;99.90;;;;;;5073336;28;20249;-80
2020/12/26 02:14:57;;;;;;;25.40;16.23;;;1.20;99.90;;;;;;5073286;28;20284;-80
2020/12/26 02:17:24;;;;;;;22.00;16.27;;;1.20;99.90;;;;;;5073373;28;20230;-81
2020/12/26 02:19:51;;;;;;;23.57;17.10;;;1.20;99.90;;;;;;5072932;28;20230;-80
2020/12/26 02:22:17;;;;;;;23.97;16.70;;;1.30;99.90;;;;;;5073329;28;20230;-80
2020/12/26 02:24:45;;;;;;;24.27;16.23;;;1.20;99.90;;;;;;5072664;28;20666;-80
2020/12/26 02:27:11;;;;;;;24.57;16.67;;;1.10;99.90;;;;;;5054518;28;20316;-80
2020/12/26 02:29:37;;;;;;;22.13;16.20;;;1.10;99.90;;;;;;5063956;28;20313;-80
2020/12/26 02:32:04;;;;;;;20.93;16.20;;;1.10;99.90;;;;;;5062785;28;20302;-80
2020/12/26 02:34:30;;;;;;;21.73;15.80;;;1.00;99.90;;;;;;5065637;28;20226;-80
2020/12/26 02:36:57;;;;;;;20.43;15.17;;;0.90;99.90;;;;;;5072742;28;20280;-80
2020/12/26 02:39:23;;;;;;;22.63;16.13;;;0.70;99.90;;;;;;5072658;28;20284;-80
2020/12/26 02:41:51;;;;;;;23.90;16.80;;;0.60;99.90;;;;;;5072469;28;20203;-80
2020/12/26 02:44:18;;;;;;;22.40;16.77;;;0.70;99.90;;;;;;5071917;28;20985;-80
2020/12/26 02:46:49;;;;;;;24.07;16.70;;;0.90;99.90;;;;;;5072314;28;20246;-80
2020/12/26 02:49:16;;;;;;;23.03;16.87;;;1.00;99.90;;;;;;5062228;28;20305;-80
2020/12/26 02:51:42;;;;;;;21.43;16.50;;;1.20;99.90;;;;;;5052325;28;20625;-80
2020/12/26 02:54:11;;;;;;;22.53;15.60;;;1.20;99.90;;;;;;5069741;28;20234;-80
2020/12/26 02:56:38;;;;;;;20.43;14.87;;;1.00;99.90;;;;;;5072422;28;20203;-80
2020/12/26 02:59:07;;;;;;;26.00;19.60;;;0.90;99.90;;;;;;5071473;28;20663;-80
2020/12/26 03:01:34;;;;;;;27.03;21.40;;;0.80;99.90;;;;;;5063967;28;20265;-80
2020/12/26 03:04:00;;;;;;;17.87;13.60;;;0.80;99.90;;;;;;5070903;28;20231;-80
2020/12/26 03:06:27;;;;;;;17.03;13.97;;;0.70;99.90;;;;;;5073344;28;20276;-80
2020/12/26 03:08:53;;;;;;;18.37;13.30;;;0.80;99.90;;;;;;5071653;28;20230;-80
2020/12/26 03:11:22;;;;;;;20.57;13.87;;;0.80;99.90;;;;;;5071758;28;20295;-80
2020/12/26 03:13:48;;;;;;;20.83;14.33;;;0.90;99.90;;;;;;5071801;28;20206;-81
2020/12/26 03:16:17;;;;;;;16.40;13.67;;;0.90;99.90;;;;;;5054625;28;20198;-80
2020/12/26 03:18:44;;;;;;;23.90;14.97;;;1.00;99.90;;;;;;5071500;28;20689;-80
2020/12/26 03:21:10;;;;;;;18.60;14.17;;;1.00;99.90;;;;;;5072242;28;20221;-80
2020/12/26 03:23:37;;;;;;;20.93;14.97;;;1.10;99.90;;;;;;5071499;28;20230;-80
2020/12/26 03:26:03;;;;;;;17.30;13.90;;;1.00;99.90;;;;;;5061923;28;20231;-80
2020/12/26 03:28:29;;;;;;;19.87;14.33;;;0.90;99.90;;;;;;5056535;28;20281;-81
2020/12/26 03:30:56;;;;;;;21.73;15.27;;;0.80;99.90;;;;;;5071188;28;20306;-81
2020/12/26 03:33:23;;;;;;;19.97;14.47;;;0.80;99.90;;;;;;5071434;28;20319;-81
2020/12/26 03:35:49;;;;;;;19.47;14.60;;;0.70;99.90;;;;;;5072414;28;20237;-81
2020/12/26 03:38:16;;;;;;;20.53;14.77;;;0.80;99.90;;;;;;5072130;28;20246;-80
2020/12/26 03:40:42;;;;;;;21.77;16.07;;;0.80;99.90;;;;;;5071650;28;20667;-80
2020/12/26 03:43:09;;;;;;;21.57;15.47;;;0.90;99.90;;;;;;5071569;28;20246;-81
2020/12/26 03:45:35;;;;;;;21.13;15.30;;;0.90;99.90;;;;;;5072273;28;20237;-80
2020/12/26 03:48:02;;;;;;;21.53;15.47;;;0.80;99.90;;;;;;5071534;28;20237;-80
2020/12/26 03:50:29;;;;;;;20.63;14.90;;;0.70;99.90;;;;;;5071987;28;20314;-81
2020/12/26 03:52:55;;;;;;;22.50;15.03;;;0.80;99.90;;;;;;5056700;28;20664;-80
2020/12/26 03:55:22;;;;;;;20.13;15.07;;;0.80;99.90;;;;;;5051877;28;20241;-81
2020/12/26 03:57:48;;;;;;;21.23;15.23;;;0.90;99.90;;;;;;5051638;28;20198;-80
2020/12/26 04:00:15;;;;;;;19.23;15.20;;;0.90;99.90;;;;;;5058460;28;20234;-81
2020/12/26 04:02:42;;;;;;;19.67;14.90;;;1.00;99.90;;;;;;5088692;28;20653;-81
2020/12/26 04:05:08;;;;;;;19.80;14.37;;;1.10;99.90;;;;;;5072851;28;20231;-81
2020/12/26 04:07:36;;;;;;;19.27;14.77;;;1.20;99.90;;;;;;5055738;28;20634;-81
2020/12/26 04:10:02;;;;;;;18.67;14.47;;;1.20;99.90;;;;;;5056940;28;20255;-81
2020/12/26 04:12:29;;;;;;;22.63;14.77;;;1.30;99.90;;;;;;5058342;28;20390;-80
2020/12/26 04:14:55;;;;;;;17.90;14.03;;;1.40;99.90;;;;;;5075590;28;20248;-81
2020/12/26 04:17:23;;;;;;;19.70;13.73;;;1.40;99.90;;;;;;5075045;28;20237;-80
2020/12/26 04:19:50;;;;;;;19.23;13.97;;;1.30;99.90;;;;;;5075381;28;20206;-80
2020/12/26 04:22:16;;;;;;;18.83;13.27;;;1.20;99.90;;;;;;5074836;28;20201;-80
2020/12/26 04:24:44;;;;;;;18.60;14.23;;;1.20;99.90;;;;;;5075195;28;20237;-80
2020/12/26 04:27:10;;;;;;;20.73;13.97;;;1.30;99.90;;;;;;5056167;28;20310;-81
2020/12/26 04:29:37;;;;;;;18.97;13.80;;;1.30;99.90;;;;;;5062698;28;20360;-81
2020/12/26 04:32:03;;;;;;;17.53;12.00;;;1.40;99.90;;;;;;5075030;28;20239;-81
2020/12/26 04:34:30;;;;;;;17.23;11.80;;;1.50;99.90;;;;;;5070844;28;20702;-80
2020/12/26 04:36:57;;;;;;;15.57;12.37;;;1.60;99.90;;;;;;5069090;28;20238;-80
2020/12/26 04:39:23;;;;;;;18.83;12.03;;;1.70;99.90;;;;;;5074275;28;20737;-81
2020/12/26 04:41:51;;;;;;;15.80;11.70;;;1.80;99.90;;;;;;5074981;28;20230;-81
2020/12/26 04:44:17;;;;;;;15.60;9.97;;;1.80;99.90;;;;;;5074581;28;20292;-81
2020/12/26 04:46:46;;;;;;;12.63;8.97;;;1.80;99.90;;;;;;5074801;28;20666;-81
2020/12/26 04:49:15;;;;;;;12.80;9.00;;;1.90;99.90;;;;;;5074499;28;20245;-80
2020/12/26 04:51:42;;;;;;;14.17;9.00;;;2.00;99.90;;;;;;5074102;28;20257;-81
2020/12/26 04:54:11;;;;;;;12.43;9.03;;;2.00;99.90;;;;;;5074719;28;20654;-80
2020/12/26 04:56:43;;;;;;;13.10;9.23;;;2.00;99.90;;;;;;5074599;28;20245;-81
2020/12/26 04:59:12;;;;;;;13.23;9.13;;;2.00;99.90;;;;;;5066190;28;20227;-81
2020/12/26 05:01:40;;;;;;;12.37;8.87;;;2.00;99.90;;;;;;5073818;28;20238;-81
2020/12/26 05:04:08;;;;;;;13.83;8.87;;;2.10;99.90;;;;;;5066386;28;20191;-81
2020/12/26 05:06:45;;;;;;;12.17;8.57;;;2.10;99.90;;;;;;5056423;28;20620;-80
2020/12/26 05:09:12;;;;;;;13.97;8.50;;;2.00;99.90;;;;;;5074401;28;20211;-81
2020/12/26 05:11:38;;;;;;;13.83;8.70;;;2.10;99.90;;;;;;5074603;28;20222;-80
2020/12/26 05:14:07;;;;;;;12.13;8.60;;;2.00;99.90;;;;;;5074228;28;20638;-81
2020/12/26 05:16:36;;;;;;;10.30;8.10;;;2.00;99.90;;;;;;5074206;28;20666;-80
2020/12/26 05:19:02;;;;;;;14.00;8.40;;;2.00;99.90;;;;;;5074191;28;20280;-81
2020/12/26 05:21:29;;;;;;;12.47;8.37;;;1.90;99.90;;;;;;5074275;28;20242;-81
2020/12/26 05:24:09;;;;;;;11.70;8.30;;;1.90;99.90;;;;;;5073841;28;20287;-80
2020/12/26 05:26:43;;;;;;;13.13;8.30;;;1.80;99.90;;;;;;5073091;28;20246;-81
2020/12/26 05:29:11;;;;;;;12.23;8.03;;;1.70;99.90;;;;;;5073673;28;20295;-81
2020/12/26 05:31:50;;;;;;;13.53;8.30;;;1.70;99.90;;;;;;5055216;28;20204;-81
2020/12/26 05:34:17;;;;;;;10.47;8.10;;;1.60;99.90;;;;;;5054406;28;20206;-80
2020/12/26 05:36:44;;;;;;;13.97;8.20;;;1.50;99.90;;;;;;5053747;28;20235;-81
2020/12/26 05:39:12;;;;;;;11.10;8.13;;;1.50;99.90;;;;;;5053371;28;20250;-80
2020/12/26 05:41:40;;;;;;;11.77;8.00;;;1.40;99.90;;;;;;5053930;28;20203;-80
2020/12/26 05:44:06;;;;;;;13.10;8.17;;;1.40;99.90;;;;;;5058400;28;20277;-80
2020/12/26 05:46:33;;;;;;;11.47;8.50;;;1.40;99.90;;;;;;5073346;28;20287;-80
2020/12/26 05:49:25;;;;;;;18.03;9.37;;;1.40;99.90;;;;;;5073262;28;20237;-81
2020/12/26 05:51:57;;;;;;;13.30;8.63;;;1.40;99.90;;;;;;5073285;28;20325;-81
2020/12/26 05:54:24;;;;;;;11.83;8.37;;;1.40;99.90;;;;;;5073609;28;20202;-80
2020/12/26 05:57:03;;;;;;;12.90;8.03;;;1.50;99.90;;;;;;5073100;28;20269;-80
2020/12/26 05:59:29;;;;;;;13.73;8.30;;;1.50;99.90;;;;;;5073596;28;20635;-80
2020/12/26 06:01:56;;;;;;;14.57;9.00;;;1.60;99.90;;;;;;5073184;28;20241;-81
2020/12/26 06:04:25;;;;;;;12.33;8.53;;;1.70;99.90;;;;;;5073302;28;20613;-80
2020/12/26 06:06:53;;;;;;;14.27;8.60;;;1.80;99.90;;;;;;5072800;28;20679;-80
2020/12/26 06:09:20;;;;;;;13.50;7.97;;;1.80;99.90;;;;;;5073459;28;20210;-80
2020/12/26 06:11:48;;;;;;;13.80;8.23;;;1.80;99.90;;;;;;5072521;28;20210;-81
2020/12/26 06:14:18;;;;;;;12.47;8.30;;;1.80;99.90;;;;;;5072600;28;20227;-81
2020/12/26 06:16:49;;;;;;;15.30;8.97;;;1.90;99.90;;;;;;5072440;28;20204;-80
2020/12/26 06:19:18;;;;;;;13.33;9.00;;;2.00;99.90;;;;;;5072500;28;20671;-80
2020/12/26 06:21:50;;;;;;;15.63;9.40;;;2.10;99.90;;;;;;5072632;28;20752;-80
2020/12/26 06:24:16;;;;;;;12.50;9.67;;;2.10;99.90;;;;;;5072696;28;20235;-80
2020/12/26 06:26:46;;;;;;;13.73;9.20;;;2.10;99.90;;;;;;5071737;28;20261;-81
2020/12/26 06:29:16;;;;;;;12.27;8.10;;;2.20;99.90;;;;;;5066533;28;20233;-80
2020/12/26 06:31:45;;;;;;;13.00;8.60;;;2.20;99.90;;;;;;5053556;28;20264;-80
2020/12/26 06:34:13;;;;;;;12.97;8.63;;;2.20;99.90;;;;;;5052573;28;20754;-80
2020/12/26 06:36:41;;;;;;;13.33;8.93;;;2.20;99.90;;;;;;5052861;28;20239;-81
2020/12/26 06:39:31;;;;;;;9.87;8.13;;;2.20;99.90;;;;;;5052886;28;20204;-81
2020/12/26 06:42:17;;;;;;;12.03;8.30;;;2.20;99.90;;;;;;5063882;28;20682;-80
2020/12/26 06:44:44;;;;;;;10.17;8.10;;;2.30;99.90;;;;;;5072272;28;20223;-80
2020/12/26 06:47:36;;;;;;;12.87;8.17;;;2.30;99.90;;;;;;5072331;28;20713;-81
2020/12/26 06:50:20;;;;;;;14.47;8.97;;;2.30;99.90;;;;;;5056973;28;20213;-80
2020/12/26 06:52:47;;;;;;;10.60;7.80;;;2.30;99.90;;;;;;5057535;28;20233;-81
2020/12/26 06:55:42;;;;;;;10.30;7.80;;;2.20;99.90;;;;;;5072114;28;20227;-80
2020/12/26 06:58:11;;;;;;;11.90;7.60;;;2.20;99.90;;;;;;5041227;28;20233;-81
2020/12/26 07:00:38;;;;;;;13.30;8.03;;;2.30;99.90;;;;;;5052353;28;20617;-80
2020/12/26 07:03:21;;;;;;;10.70;8.30;;;2.30;99.90;;;;;;5068039;28;20289;-80
2020/12/26 07:05:49;;;;;;;11.50;8.70;;;2.30;99.90;;;;;;5072018;28;20624;-80
2020/12/26 07:08:23;;;;;;;11.73;8.20;;;2.30;99.90;;;;;;5072503;28;20705;-81
2020/12/26 07:10:51;;;;;;;11.27;8.07;;;2.30;99.90;;;;;;5072615;28;20315;-81
2020/12/26 07:13:45;;;;;;;10.43;7.83;;;2.30;99.90;;;;;;5071972;28;20679;-81
2020/12/26 07:16:37;;;;;;;11.70;7.60;;;2.40;99.90;;;;;;5046047;28;20259;-81
2020/12/26 07:19:24;;;;;;;12.03;7.73;;;2.40;99.90;;;;;;5071337;28;20252;-82
2020/12/26 07:21:52;;;;;;;14.20;7.70;;;2.40;99.90;;;;;;4969159;28;20229;-81
2020/12/26 07:24:22;;;;;;;11.33;7.90;;;2.50;99.90;;;;;;4970934;28;20241;-81
2020/12/26 07:26:49;;;;;;;13.63;8.40;;;2.50;99.90;;;;;;4970554;28;20250;-81
2020/12/26 07:29:26;;;;;;;10.63;7.53;;;2.50;99.90;;;;;;4967206;28;20746;-81
2020/12/26 07:31:53;;;;;;;15.70;7.93;;;2.50;99.90;;;;;;4971208;28;20238;-81
2020/12/26 07:34:40;;;;;;;13.47;7.63;;;2.50;99.90;;;;;;4954062;28;20702;-81
2020/12/26 07:37:07;;;;;;;10.67;7.13;;;2.60;99.90;;;;;;4966228;28;20218;-81
2020/12/26 07:39:34;;;;;;;11.10;7.47;;;2.60;99.90;;;;;;4963085;28;20230;-81
2020/12/26 07:42:01;;;;;;;12.23;7.53;;;2.60;99.90;;;;;;4956172;28;20245;-81
2020/12/26 07:44:29;;;;;;;10.53;7.60;;;2.60;99.90;;;;;;4955355;28;20297;-81
2020/12/26 07:46:56;;;;;;;10.50;7.20;;;2.60;99.90;;;;;;4968760;28;20660;-81
2020/12/26 07:49:24;;;;;;;12.80;8.03;;;2.70;99.90;;;;;;4967319;28;20719;-81
2020/12/26 07:52:01;;;;;;;12.43;7.80;;;2.70;99.90;;;;;;4974870;28;20686;-80
2020/12/26 07:54:28;;;;;;;11.13;7.43;;;2.80;99.90;;;;;;4974938;28;20210;-81
2020/12/26 07:56:55;;;;;;;14.40;8.30;;;2.80;99.90;;;;;;4974960;28;20302;-81
2020/12/26 07:59:23;;;;;;;11.73;7.77;;;2.80;99.90;;;;;;5036685;28;20243;-81
2020/12/26 08:01:51;;;;;;;11.37;8.37;;;2.80;99.90;;;;;;5055840;28;20295;-81
2020/12/26 08:04:17;;;;;;;11.33;7.93;;;2.80;99.90;;;;;;5055790;28;20258;-81
2020/12/26 08:06:46;;;;;;;11.27;8.17;;;2.70;99.90;;;;;;5055552;28;20672;-81
2020/12/26 08:09:13;;;;;;;11.90;7.77;;;2.70;99.90;;;;;;5055324;28;20683;-81
2020/12/26 08:11:39;;;;;;;13.13;7.83;;;2.60;99.90;;;;;;5055401;28;20225;-80
2020/12/26 08:14:06;;;;;;;15.43;9.10;;;2.70;99.90;;;;;;5055813;28;20230;-80
2020/12/26 08:16:35;;;;;;;16.70;9.00;;;2.70;99.90;;;;;;5054270;28;20703;-81
2020/12/26 08:19:02;;;;;;;13.70;8.80;;;2.60;99.90;;;;;;5055557;28;20319;-81
2020/12/26 08:21:30;;;;;;;14.07;9.00;;;2.60;99.90;;;;;;5054603;28;20329;-81
2020/12/26 08:23:57;;;;;;;13.00;9.43;;;2.50;99.90;;;;;;5055115;28;20233;-80
2020/12/26 08:26:25;;;;;;;15.23;9.00;;;2.60;99.90;;;;;;5055188;28;20305;-80
2020/12/26 08:28:54;;;;;;;17.00;9.10;;;2.60;99.90;;;;;;5060810;28;20268;-79
2020/12/26 08:31:23;;;;;;;17.10;9.63;;;2.70;99.90;;;;;;5072911;28;20313;-80
2020/12/26 08:34:00;;;;;;;13.20;8.97;;;3.60;99.90;;;;;;5074997;28;20268;-80
2020/12/26 08:36:30;;;;;;;11.77;7.80;;;4.50;99.90;;;;;;5075370;28;20234;-80
2020/12/26 08:38:58;;;;;;;11.40;7.70;;;5.30;99.90;;;;;;5071471;28;20265;-80
2020/12/26 08:41:25;;;;;;;9.83;7.20;;;6.10;99.90;;;;;;5055043;28;20244;-80
2020/12/26 08:43:52;;;;;;;7.70;6.30;;;6.50;99.90;;;;;;5071661;28;20333;-80
2020/12/26 08:46:20;;;;;;;8.77;6.03;;;7.60;99.90;;;;;;5074391;28;20683;-80
2020/12/26 08:48:47;;;;;;;7.27;5.17;;;7.30;99.90;;;;;;5056800;28;20283;-80
2020/12/26 08:51:20;;;;;;;7.67;4.93;;;6.80;99.90;;;;;;5071310;28;20309;-80
2020/12/26 08:53:47;;;;;;;7.40;5.80;;;6.30;99.90;;;;;;5074765;28;20199;-80
2020/12/26 08:56:14;;;;;;;7.37;5.70;;;6.60;99.90;;;;;;5073947;28;20206;-80
2020/12/26 08:58:48;;;;;;;10.33;6.80;;;6.30;99.90;;;;;;5074323;28;20241;-78
2020/12/26 09:01:15;;;;;;;9.40;6.50;;;5.90;99.90;;;;;;5075346;28;20202;-79
2020/12/26 09:03:48;;;;;;;8.33;6.23;;;5.50;99.90;;;;;;5074275;28;20206;-80
2020/12/26 09:06:15;;;;;;;9.40;5.83;;;5.20;99.90;;;;;;5054872;28;20233;-79
2020/12/26 09:08:43;;;;;;;11.17;5.80;;;5.10;99.90;;;;;;5062593;28;20201;-80
2020/12/26 09:11:11;;;;;;;10.20;6.20;;;4.80;99.90;;;;;;5075140;28;20306;-79
2020/12/26 09:13:39;;;;;;;8.80;5.40;;;4.70;99.90;;;;;;5065195;28;20340;-79
2020/12/26 09:16:10;;;;;;;7.47;5.30;;;4.70;99.90;;;;;;5054874;28;20205;-77
2020/12/26 09:18:39;;;;;;;8.03;5.13;;;4.80;99.90;;;;;;5073465;28;20207;-77
2020/12/26 09:21:06;;;;;;;7.93;4.87;;;4.90;99.90;;;;;;5074514;28;20199;-77
2020/12/26 09:23:34;;;;;;;7.70;5.87;;;5.00;99.90;;;;;;5058904;28;20203;-77
2020/12/26 09:26:16;;;;;;;9.67;5.50;;;5.00;99.90;;;;;;5065434;28;20195;-78
2020/12/26 09:28:47;;;;;;;10.93;6.80;;;5.20;99.90;;;;;;5074005;28;20238;-79
2020/12/26 09:31:15;;;;;;;9.00;6.23;;;5.30;99.90;;;;;;5057090;28;20250;-79
2020/12/26 09:33:42;;;;;;;8.47;6.00;;;5.20;99.90;;;;;;5069793;28;20207;-79
2020/12/26 09:36:11;;;;;;;6.73;5.27;;;5.10;99.90;;;;;;5069894;28;20231;-79
2020/12/26 09:38:37;;;;;;;7.67;5.70;;;5.10;99.90;;;;;;5073354;28;20199;-78
2020/12/26 09:41:16;;;;;;;9.43;6.43;;;5.10;99.90;;;;;;5072151;28;20215;-78
2020/12/26 09:43:44;;;;;;;13.37;7.10;;;5.20;99.90;;;;;;5068007;28;20301;-78
2020/12/26 09:46:11;;;;;;;9.53;5.73;;;5.30;99.90;;;;;;5065659;28;20251;-78
2020/12/26 09:48:37;;;;;;;9.70;6.20;;;5.20;99.90;;;;;;5069585;28;20234;-78
2020/12/26 09:51:05;;;;;;;7.77;5.77;;;5.20;99.90;;;;;;5073432;28;20806;-78
2020/12/26 09:53:32;;;;;;;7.97;6.43;;;5.20;99.90;;;;;;5073226;28;20202;-78
2020/12/26 09:55:58;;;;;;;11.10;6.57;;;5.20;99.90;;;;;;5069470;28;20224;-78
2020/12/26 09:58:25;;;;;;;7.07;5.50;;;5.10;99.90;;;;;;5054091;28;20248;-77
2020/12/26 10:00:52;;;;;;;6.50;5.20;;;5.20;99.90;;;;;;5063684;28;20231;-78
2020/12/26 10:03:18;;;;;;;8.53;6.70;;;5.30;99.90;;;;;;5073351;28;20257;-79
2020/12/26 10:05:44;;;;;;;7.97;6.30;;;5.40;99.90;;;;;;5071444;28;20254;-79
2020/12/26 10:08:11;;;;;;;8.90;6.20;;;5.50;99.90;;;;;;5058761;28;20227;-79
2020/12/26 10:10:39;;;;;;;9.97;5.80;;;5.60;99.90;;;;;;5068997;28;20602;-79
2020/12/26 10:13:06;;;;;;;9.03;5.57;;;5.60;99.90;;;;;;5063297;28;20196;-79
2020/12/26 10:15:33;;;;;;;10.27;5.93;;;5.50;99.90;;;;;;5057404;28;20224;-79
2020/12/26 10:17:59;;;;;;;10.37;5.43;;;5.50;99.90;;;;;;5071792;28;20232;-79
2020/12/26 10:20:26;;;;;;;10.63;6.00;;;5.70;99.90;;;;;;5072752;28;20234;-79
2020/12/26 10:22:52;;;;;;;9.23;5.60;;;5.70;99.90;;;;;;5066502;28;20281;-79
2020/12/26 10:25:19;;;;;;;9.67;6.10;;;5.80;99.90;;;;;;5072143;28;20596;-79
2020/12/26 10:27:45;;;;;;;8.40;5.40;;;6.20;99.90;;;;;;5071711;28;20249;-80
2020/12/26 10:30:11;;;;;;;6.67;5.27;;;6.40;99.90;;;;;;5063564;28;20352;-79
2020/12/26 10:32:39;;;;;;;8.07;5.30;;;6.50;99.90;;;;;;5057252;28;20231;-78
2020/12/26 10:35:05;;;;;;;8.63;5.83;;;6.20;99.90;;;;;;5072222;28;20290;-80
2020/12/26 10:37:32;;;;;;;10.73;6.07;;;6.10;99.90;;;;;;5071461;28;20202;-75
2020/12/26 10:39:59;;;;;;;9.90;6.77;;;5.90;99.90;;;;;;5067820;28;20288;-79
2020/12/26 10:42:29;;;;;;;9.87;6.10;;;5.80;99.90;;;;;;5071466;28;20256;-78
2020/12/26 10:44:55;;;;;;;7.60;5.53;;;5.80;99.90;;;;;;5070818;28;20201;-78
2020/12/26 10:47:22;;;;;;;7.40;5.03;;;5.80;99.90;;;;;;5070131;28;20201;-79
2020/12/26 10:53:00;;;;;;;6.93;5.15;;;5.80;99.90;;;;;;5062435;28;20476;-76
2020/12/26 10:55:27;;;;;;;7.87;5.23;;;5.80;99.90;;;;;;5066712;28;20682;-75
2020/12/26 10:57:54;;;;;;;7.30;4.60;;;5.80;99.90;;;;;;5071305;28;20280;-76
2020/12/26 11:00:20;;;;;;;9.47;6.00;;;5.80;99.90;;;;;;5068317;28;20240;-76
2020/12/26 11:02:47;;;;;;;9.43;6.03;;;5.90;99.90;;;;;;5071249;28;20208;-76
2020/12/26 11:05:13;;;;;;;14.13;5.73;;;6.00;99.90;;;;;;5071790;28;20254;-76
2020/12/26 11:07:42;;;;;;;8.90;5.63;;;6.10;99.90;;;;;;5070215;28;20227;-76
2020/12/26 11:10:08;;;;;;;10.30;5.97;;;6.20;99.90;;;;;;5069346;28;20636;-75
2020/12/26 11:12:35;;;;;;;11.47;7.00;;;6.40;99.90;;;;;;5071005;28;20281;-75
2020/12/26 11:15:01;;;;;;;8.97;6.17;;;6.50;99.90;;;;;;5067008;28;20736;-75
2020/12/26 11:17:28;;;;;;;11.07;5.90;;;6.60;99.90;;;;;;5069859;28;20243;-75
2020/12/26 11:19:54;;;;;;;9.93;5.30;;;6.80;99.90;;;;;;5068499;28;20241;-75
2020/12/26 11:22:21;;;;;;;8.77;5.10;;;7.30;99.90;;;;;;5067759;28;20289;-75
2020/12/26 11:24:48;;;;;;;9.27;4.73;;;7.50;99.90;;;;;;5064189;28;20674;-75
2020/12/26 11:27:15;;;;;;;5.57;4.27;;;7.50;99.90;;;;;;5067497;28;20262;-75
2020/12/26 11:29:41;;;;;;;6.77;3.90;;;7.60;99.90;;;;;;5063240;28;20230;-75
2020/12/26 11:32:08;;;;;;;8.77;4.90;;;7.50;99.90;;;;;;5069344;28;20678;-75
2020/12/26 11:34:35;;;;;;;9.73;4.60;;;7.50;99.90;;;;;;5069708;28;20247;-75
2020/12/26 11:37:02;;;;;;;7.60;4.33;;;7.20;99.90;;;;;;5070763;28;20202;-76
2020/12/26 11:39:29;;;;;;;7.53;4.23;;;7.30;99.90;;;;;;5069203;28;20281;-75
2020/12/26 11:41:56;;;;;;;6.77;4.03;;;7.70;99.90;;;;;;5067379;28;20206;-75
2020/12/26 11:44:22;;;;;;;6.10;3.67;;;7.80;99.90;;;;;;5053722;28;20250;-75
2020/12/26 11:46:49;;;;;;;6.13;3.90;;;8.00;99.90;;;;;;5060507;28;20256;-75
2020/12/26 11:49:16;;;;;;;4.23;2.80;;;7.90;99.90;;;;;;5071869;28;20239;-75
2020/12/26 11:51:43;;;;;;;4.43;3.30;;;7.60;99.90;;;;;;5071807;28;20303;-75
2020/12/26 11:54:09;;;;;;;5.60;2.90;;;7.60;99.90;;;;;;5066468;28;20227;-75
2020/12/26 11:56:35;;;;;;;4.87;2.47;;;7.50;99.90;;;;;;5055667;28;20244;-74
2020/12/26 11:59:03;;;;;;;5.63;2.77;;;7.60;99.90;;;;;;5056614;28;20229;-76
2020/12/26 12:01:29;;;;;;;5.97;2.80;;;7.70;99.90;;;;;;5075569;28;20623;-76
2020/12/26 12:03:56;;;;;;;6.20;3.63;;;7.80;99.90;;;;;;5073500;28;20701;-75
2020/12/26 12:06:22;;;;;;;6.13;3.70;;;7.80;99.90;;;;;;5070327;28;20209;-75
2020/12/26 12:08:49;;;;;;;5.87;3.03;;;7.70;99.90;;;;;;5071034;28;20282;-75
2020/12/26 12:11:18;;;;;;;4.67;2.80;;;7.70;99.90;;;;;;5061936;28;20628;-75
2020/12/26 12:13:44;;;;;;;3.43;2.30;;;7.70;99.90;;;;;;5061683;28;20199;-75
2020/12/26 12:16:13;;;;;;;4.40;2.80;;;8.00;99.90;;;;;;5071580;28;20239;-75
2020/12/26 12:18:40;;;;;;;3.63;2.43;;;8.20;99.90;;;;;;5071202;28;20279;-75
2020/12/26 12:21:06;;;;;;;4.20;2.77;;;8.20;99.90;;;;;;5051702;28;20231;-75
2020/12/26 12:23:33;;;;;;;4.67;2.80;;;8.70;99.90;;;;;;5063054;28;20224;-75
2020/12/26 12:25:59;;;;;;;5.93;3.00;;;9.00;99.90;;;;;;5064334;28;20243;-75
2020/12/26 12:28:25;;;;;;;4.00;2.90;;;8.90;99.90;;;;;;5075113;28;20270;-75
2020/12/26 12:30:52;;;;;;;4.93;2.90;;;9.00;99.90;;;;;;5072214;28;20310;-75
2020/12/26 12:33:19;;;;;;;6.97;3.10;;;8.70;99.90;;;;;;5064526;28;20234;-76
2020/12/26 12:35:46;;;;;;;5.80;3.10;;;8.70;99.90;;;;;;5071951;28;20239;-75
2020/12/26 12:38:12;;;;;;;6.00;3.60;;;8.70;99.90;;;;;;5073695;28;20227;-75
2020/12/26 12:40:39;;;;;;;5.37;3.77;;;8.70;99.90;;;;;;5073182;28;20227;-76
2020/12/26 12:43:05;;;;;;;6.00;3.57;;;8.80;99.90;;;;;;5074752;28;20202;-75
2020/12/26 12:45:31;;;;;;;6.40;3.73;;;8.80;99.90;;;;;;5066427;28;20289;-75
2020/12/26 12:47:58;;;;;;;5.80;3.73;;;8.70;99.90;;;;;;5065158;28;20231;-76
2020/12/26 12:50:26;;;;;;;6.50;3.13;;;8.70;99.90;;;;;;5060267;28;20695;-75
2020/12/26 12:52:53;;;;;;;7.17;3.50;;;8.50;99.90;;;;;;5054102;28;20289;-75